Time;durP1;ratioP1;P1;durP2;ratioP2;P2;SDS_P1;SDS_P2;PMS_P1;PMS_P2;Temp;Humidity;BMP_temperature;BMP_pressure;BME280_temperature;BME280_humidity;BME280_pressure;Samples;Min_cycle;Max_cycle;Signal;HPM_P1;HPM_P2
2021/11/18 00:01:04;;;;;;;24.87;6.00;;;8.30;99.90;;;;;;5114275;27;37790;-76
2021/11/18 00:03:30;;;;;;;26.50;5.63;;;8.30;99.90;;;;;;5131818;27;37651;-76
2021/11/18 00:05:57;;;;;;;24.10;4.97;;;8.20;99.90;;;;;;5117087;27;39634;-77
2021/11/18 00:08:24;;;;;;;22.27;6.17;;;8.30;99.90;;;;;;5131401;27;39851;-77
2021/11/18 00:10:57;;;;;;;22.77;5.07;;;8.40;99.90;;;;;;5135200;27;20131;-76
2021/11/18 00:13:29;;;;;;;38.38;7.18;;;8.30;99.90;;;;;;5131275;27;38088;-77
2021/11/18 00:15:56;;;;;;;21.50;5.90;;;8.40;99.90;;;;;;5131807;27;39603;-77
2021/11/18 00:18:25;;;;;;;31.80;6.53;;;8.40;99.90;;;;;;5135819;27;39623;-76
2021/11/18 00:20:59;;;;;;;27.07;6.70;;;8.40;99.90;;;;;;5134534;27;38698;-77
2021/11/18 00:23:29;;;;;;;38.53;7.00;;;8.50;99.90;;;;;;5139460;27;37297;-78
2021/11/18 00:25:55;;;;;;;25.90;5.63;;;8.50;99.90;;;;;;5150913;27;38714;-78
2021/11/18 00:28:22;;;;;;;31.97;6.17;;;8.50;99.90;;;;;;5141484;27;39283;-77
2021/11/18 00:30:48;;;;;;;22.47;5.67;;;8.50;99.90;;;;;;5151331;27;39504;-76
2021/11/18 00:33:14;;;;;;;24.03;5.97;;;8.50;99.90;;;;;;5141977;27;37665;-78
2021/11/18 00:35:42;;;;;;;33.67;6.73;;;8.50;99.90;;;;;;5127753;27;38700;-78
2021/11/18 00:38:08;;;;;;;31.53;6.13;;;8.60;99.90;;;;;;5141213;27;38905;-78
2021/11/18 00:40:38;;;;;;;28.30;5.30;;;8.60;99.90;;;;;;5127015;27;39259;-78
2021/11/18 00:43:07;;;;;;;24.60;6.23;;;8.60;99.90;;;;;;5133600;27;36426;-79
2021/11/18 00:45:34;;;;;;;29.53;6.97;;;8.50;99.90;;;;;;5140026;27;39767;-78
2021/11/18 00:48:01;;;;;;;37.60;7.73;;;8.40;99.90;;;;;;5134697;27;37370;-77
2021/11/18 00:50:31;;;;;;;27.90;6.30;;;8.40;99.90;;;;;;5141138;27;48331;-77
2021/11/18 00:52:58;;;;;;;32.40;6.70;;;8.40;99.90;;;;;;5121594;27;38304;-78
2021/11/18 00:55:26;;;;;;;26.93;6.30;;;8.40;99.90;;;;;;5139953;27;41070;-78
2021/11/18 00:57:53;;;;;;;25.80;5.47;;;8.50;99.90;;;;;;5133418;27;39366;-78
2021/11/18 01:00:26;;;;;;;30.57;7.10;;;8.50;99.90;;;;;;5142913;27;38832;-78
2021/11/18 01:02:53;;;;;;;31.07;6.50;;;8.50;99.90;;;;;;5124509;27;34807;-78
2021/11/18 01:05:24;;;;;;;27.30;7.23;;;8.50;99.90;;;;;;5116463;27;39783;-78
2021/11/18 01:07:52;;;;;;;35.77;6.63;;;8.40;99.90;;;;;;5130098;27;40032;-79
2021/11/18 01:10:19;;;;;;;26.83;6.60;;;8.40;99.90;;;;;;5141984;27;37981;-78
2021/11/18 01:12:45;;;;;;;25.60;6.00;;;8.40;99.90;;;;;;5159870;27;34847;-79
2021/11/18 01:15:16;;;;;;;27.13;5.57;;;8.50;99.90;;;;;;5135898;27;38032;-79
2021/11/18 01:17:43;;;;;;;39.13;7.60;;;8.40;99.90;;;;;;5162006;27;38551;-79
2021/11/18 01:20:12;;;;;;;26.77;5.53;;;8.40;99.90;;;;;;5161602;27;39377;-79
2021/11/18 01:22:39;;;;;;;35.63;5.90;;;8.40;99.90;;;;;;5137750;27;38134;-79
2021/11/18 01:25:07;;;;;;;24.60;6.10;;;8.50;99.90;;;;;;5136943;27;40075;-76
2021/11/18 01:27:33;;;;;;;28.00;6.87;;;8.60;99.90;;;;;;5136199;27;39526;-77
2021/11/18 01:29:59;;;;;;;28.03;6.17;;;8.60;99.90;;;;;;5138323;27;38701;-80
2021/11/18 01:32:25;;;;;;;31.60;6.07;;;8.60;99.90;;;;;;5138307;27;37165;-78
2021/11/18 01:34:52;;;;;;;34.90;6.77;;;8.60;99.90;;;;;;5135658;27;40488;-78
2021/11/18 01:37:18;;;;;;;29.00;6.77;;;8.60;99.90;;;;;;5153806;27;38810;-78
2021/11/18 01:39:44;;;;;;;31.97;5.77;;;8.50;99.90;;;;;;5157571;27;38997;-78
2021/11/18 01:42:10;;;;;;;25.30;7.00;;;8.40;99.90;;;;;;5159365;27;37123;-77
2021/11/18 01:44:41;;;;;;;37.03;6.70;;;8.50;99.90;;;;;;5136244;27;39038;-76
2021/11/18 01:47:09;;;;;;;27.10;6.33;;;8.50;99.90;;;;;;5155472;27;40176;-77
2021/11/18 01:49:36;;;;;;;43.03;7.10;;;8.50;99.90;;;;;;5136548;27;40209;-76
2021/11/18 01:52:06;;;;;;;20.23;6.90;;;8.50;99.90;;;;;;5160825;27;35914;-75
2021/11/18 01:54:36;;;;;;;33.77;6.63;;;8.40;99.90;;;;;;5135257;27;39337;-76
2021/11/18 01:57:07;;;;;;;35.97;6.60;;;8.40;99.90;;;;;;5135064;27;37527;-78
2021/11/18 01:59:37;;;;;;;27.57;6.20;;;8.30;99.90;;;;;;5159935;27;40596;-76
2021/11/18 02:02:04;;;;;;;25.70;6.60;;;8.30;99.90;;;;;;5111259;27;37788;-76
2021/11/18 02:04:31;;;;;;;64.63;10.23;;;8.30;99.90;;;;;;5109651;27;39130;-76
2021/11/18 02:07:07;;;;;;;34.77;6.33;;;8.20;99.90;;;;;;5096732;27;38442;-76
2021/11/18 02:09:40;;;;;;;34.70;6.50;;;8.30;99.90;;;;;;5089539;27;46697;-77
2021/11/18 02:12:27;;;;;;;37.42;7.22;;;8.40;99.90;;;;;;5098358;27;37494;-76
2021/11/18 02:14:55;;;;;;;32.70;7.47;;;8.40;99.90;;;;;;5110435;27;40528;-77
2021/11/18 02:17:24;;;;;;;40.23;7.57;;;8.40;99.90;;;;;;5095712;27;39812;-77
2021/11/18 02:20:02;;;;;;;32.80;7.43;;;8.40;99.90;;;;;;5119699;27;39947;-77
2021/11/18 02:22:30;;;;;;;31.30;6.53;;;8.40;99.90;;;;;;5115990;27;47242;-77
2021/11/18 02:25:09;;;;;;;33.10;6.83;;;8.40;99.90;;;;;;5112960;27;37569;-76
2021/11/18 02:27:36;;;;;;;32.43;6.67;;;8.40;99.90;;;;;;5087567;27;48852;-78
2021/11/18 02:30:02;;;;;;;27.10;6.50;;;8.40;99.90;;;;;;5091874;27;35691;-77
2021/11/18 02:32:32;;;;;;;35.17;6.40;;;8.40;99.90;;;;;;5093609;27;47992;-78
2021/11/18 02:35:30;;;;;;;23.73;5.90;;;8.50;99.90;;;;;;5094741;27;39665;-77
2021/11/18 02:37:58;;;;;;;33.67;7.00;;;8.60;99.90;;;;;;5117218;27;47094;-77
2021/11/18 02:40:26;;;;;;;31.73;6.73;;;8.60;99.90;;;;;;5128727;27;40002;-77
2021/11/18 02:42:54;;;;;;;20.30;6.20;;;8.70;99.90;;;;;;5109543;27;36781;-76
2021/11/18 02:45:25;;;;;;;33.13;6.73;;;8.70;99.90;;;;;;5112593;27;38796;-78
2021/11/18 02:47:51;;;;;;;25.23;7.20;;;8.70;99.90;;;;;;5112665;27;39511;-79
2021/11/18 02:50:21;;;;;;;26.70;7.07;;;8.70;99.90;;;;;;5106550;27;39136;-79
2021/11/18 02:52:49;;;;;;;38.37;7.10;;;8.70;99.90;;;;;;5099859;27;37093;-78
2021/11/18 02:55:28;;;;;;;30.03;6.30;;;8.70;99.90;;;;;;5109950;27;38995;-78
2021/11/18 02:57:55;;;;;;;27.87;6.37;;;8.70;99.90;;;;;;5115177;27;40016;-78
2021/11/18 03:00:25;;;;;;;27.70;6.80;;;8.70;99.90;;;;;;5105525;27;38228;-78
2021/11/18 03:02:51;;;;;;;30.53;6.40;;;8.80;99.90;;;;;;5130981;27;39068;-79
2021/11/18 03:05:18;;;;;;;23.07;6.80;;;8.70;99.90;;;;;;5134150;27;40364;-78
2021/11/18 03:07:46;;;;;;;27.20;7.53;;;8.80;99.90;;;;;;5121190;27;37701;-78
2021/11/18 03:10:15;;;;;;;32.10;8.10;;;8.80;99.90;;;;;;5118325;27;38546;-79
2021/11/18 03:12:42;;;;;;;34.23;7.10;;;8.80;99.90;;;;;;5130109;27;37889;-80
2021/11/18 03:15:11;;;;;;;27.10;5.97;;;8.90;99.90;;;;;;5149737;27;37479;-79
2021/11/18 03:17:38;;;;;;;24.87;6.17;;;8.90;99.90;;;;;;5158443;27;37399;-78
2021/11/18 03:20:07;;;;;;;27.87;6.30;;;8.90;99.90;;;;;;5153694;27;39869;-78
2021/11/18 03:22:33;;;;;;;39.27;8.57;;;8.90;99.90;;;;;;5155669;27;48340;-79
2021/11/18 03:25:00;;;;;;;26.97;7.00;;;9.00;99.90;;;;;;5155617;27;36858;-78
2021/11/18 03:27:26;;;;;;;32.37;7.43;;;9.00;99.90;;;;;;5153987;27;39835;-79
2021/11/18 03:29:52;;;;;;;35.10;8.63;;;9.00;99.90;;;;;;5135864;27;38705;-78
2021/11/18 03:32:18;;;;;;;31.23;8.83;;;9.00;99.90;;;;;;5154985;27;38310;-79
2021/11/18 03:34:44;;;;;;;33.73;8.70;;;9.00;99.90;;;;;;5133709;27;38953;-79
2021/11/18 03:37:10;;;;;;;32.77;9.03;;;9.00;99.90;;;;;;5152776;27;40200;-79
2021/11/18 03:39:38;;;;;;;36.47;8.57;;;9.00;99.90;;;;;;5156559;27;39676;-79
2021/11/18 03:42:07;;;;;;;36.20;9.33;;;9.00;99.90;;;;;;5152943;27;36821;-79
2021/11/18 03:44:35;;;;;;;30.63;8.07;;;9.00;99.90;;;;;;5132511;27;38866;-79
2021/11/18 03:47:05;;;;;;;35.03;8.03;;;8.90;99.90;;;;;;5153528;27;38976;-79
2021/11/18 03:49:33;;;;;;;36.77;8.93;;;8.90;99.90;;;;;;5151685;27;48319;-80
2021/11/18 03:52:01;;;;;;;37.30;9.47;;;8.80;99.90;;;;;;5155270;27;37135;-79
2021/11/18 03:54:30;;;;;;;39.63;8.80;;;8.80;99.90;;;;;;5137936;27;45487;-78
2021/11/18 03:56:56;;;;;;;26.97;7.53;;;8.70;99.90;;;;;;5132839;27;37697;-77
2021/11/18 03:59:25;;;;;;;30.17;7.50;;;8.60;99.90;;;;;;5154343;27;39152;-78
2021/11/18 04:01:52;;;;;;;27.93;7.57;;;8.50;99.90;;;;;;5158203;27;37357;-78
2021/11/18 04:04:25;;;;;;;28.37;7.50;;;8.50;99.90;;;;;;5155760;27;40338;-77
2021/11/18 04:06:51;;;;;;;;;;;8.50;99.90;;;;;;5138773;27;39273;-77
2021/11/18 04:09:17;;;;;;;32.07;8.50;;;8.50;99.90;;;;;;5153411;27;39521;-78
2021/11/18 04:11:47;;;;;;;38.40;9.40;;;8.50;99.90;;;;;;5157491;27;36927;-77
2021/11/18 04:14:13;;;;;;;38.77;9.60;;;8.40;99.90;;;;;;5152648;27;37382;-77
2021/11/18 04:16:40;;;;;;;37.70;10.37;;;8.50;99.90;;;;;;5120295;27;39137;-77
2021/11/18 04:19:06;;;;;;;38.97;8.67;;;8.50;99.90;;;;;;5127830;27;37605;-77
2021/11/18 04:21:34;;;;;;;30.67;9.77;;;8.40;99.90;;;;;;5119148;27;36017;-76
2021/11/18 04:24:04;;;;;;;28.17;8.73;;;8.40;99.90;;;;;;5133552;27;38886;-77
2021/11/18 04:26:30;;;;;;;38.77;8.47;;;8.40;99.90;;;;;;5139107;27;45472;-76
2021/11/18 04:28:57;;;;;;;38.30;9.90;;;8.40;99.90;;;;;;5137493;27;37537;-77
2021/11/18 04:31:25;;;;;;;36.97;9.67;;;8.30;99.90;;;;;;5157333;27;37033;-77
2021/11/18 04:33:52;;;;;;;27.37;7.93;;;8.30;99.90;;;;;;5157095;27;38790;-78
2021/11/18 04:36:21;;;;;;;43.93;10.73;;;8.10;99.90;;;;;;5156181;27;39240;-77
2021/11/18 04:38:52;;;;;;;31.30;7.80;;;8.10;99.90;;;;;;5136255;27;40156;-76
2021/11/18 04:41:23;;;;;;;41.33;9.03;;;8.30;99.90;;;;;;5153743;27;37286;-78
2021/11/18 04:43:50;;;;;;;35.00;9.17;;;8.30;99.90;;;;;;5137245;27;38655;-77
2021/11/18 04:46:16;;;;;;;44.17;9.23;;;8.30;99.90;;;;;;5132497;27;39347;-76
2021/11/18 04:48:43;;;;;;;43.50;10.30;;;8.20;99.90;;;;;;5154493;27;36951;-77
2021/11/18 04:51:12;;;;;;;41.47;7.83;;;8.30;99.90;;;;;;5144984;27;35374;-76
2021/11/18 04:53:38;;;;;;;31.40;6.80;;;8.20;99.90;;;;;;5146840;27;39802;-76
2021/11/18 04:56:06;;;;;;;37.13;7.83;;;8.10;99.90;;;;;;5154041;27;38855;-77
2021/11/18 04:58:32;;;;;;;29.83;8.40;;;8.20;99.90;;;;;;5143069;27;38230;-77
2021/11/18 05:00:58;;;;;;;29.47;7.80;;;8.30;99.90;;;;;;5126354;27;35878;-76
2021/11/18 05:03:27;;;;;;;41.27;9.00;;;8.40;99.90;;;;;;5131168;27;39333;-76
2021/11/18 05:05:53;;;;;;;44.50;10.13;;;8.40;99.90;;;;;;5137996;27;38835;-77
2021/11/18 05:08:20;;;;;;;29.97;8.60;;;8.50;99.90;;;;;;5137924;27;38665;-76
2021/11/18 05:10:50;;;;;;;25.80;8.70;;;8.50;99.90;;;;;;5131300;27;38771;-76
2021/11/18 05:13:17;;;;;;;41.97;12.00;;;8.40;99.90;;;;;;5138859;27;38811;-76
2021/11/18 05:15:46;;;;;;;31.40;8.70;;;8.40;99.90;;;;;;5135853;27;39988;-78
2021/11/18 05:18:13;;;;;;;35.57;9.87;;;8.40;99.90;;;;;;5136441;27;39457;-77
2021/11/18 05:20:41;;;;;;;39.30;9.50;;;8.30;99.90;;;;;;5130120;27;35702;-77
2021/11/18 05:23:07;;;;;;;29.70;7.97;;;8.30;99.90;;;;;;5132054;27;40548;-76
2021/11/18 05:25:34;;;;;;;34.03;8.53;;;8.30;99.90;;;;;;5133759;27;39143;-78
2021/11/18 05:28:01;;;;;;;25.67;8.00;;;8.30;99.90;;;;;;5132957;27;39211;-77
2021/11/18 05:30:29;;;;;;;34.37;8.73;;;8.30;99.90;;;;;;5133254;27;47170;-76
2021/11/18 05:32:57;;;;;;;32.30;9.20;;;8.40;99.90;;;;;;5138231;27;40434;-77
2021/11/18 05:35:25;;;;;;;31.50;7.97;;;8.40;99.90;;;;;;5136565;27;40568;-77
2021/11/18 05:37:52;;;;;;;39.60;8.90;;;8.40;99.90;;;;;;5138925;27;38989;-77
2021/11/18 05:40:19;;;;;;;39.53;9.53;;;8.40;99.90;;;;;;5137728;27;37203;-77
2021/11/18 05:42:47;;;;;;;39.60;9.50;;;8.50;99.90;;;;;;5136874;27;39650;-76
2021/11/18 05:45:19;;;;;;;30.70;9.17;;;8.50;99.90;;;;;;5137962;27;38766;-77
2021/11/18 05:47:46;;;;;;;37.35;8.55;;;8.50;99.90;;;;;;5133017;27;39143;-77
2021/11/18 05:50:14;;;;;;;38.43;8.53;;;8.50;99.90;;;;;;5133531;27;37763;-76
2021/11/18 05:52:42;;;;;;;39.43;9.83;;;8.70;99.90;;;;;;5123828;27;39788;-77
2021/11/18 05:55:10;;;;;;;41.43;10.73;;;8.70;99.90;;;;;;5136143;27;38972;-77
2021/11/18 05:57:36;;;;;;;31.27;9.17;;;8.80;99.90;;;;;;5135151;27;40520;-77
2021/11/18 06:00:07;;;;;;;36.90;10.70;;;8.70;99.90;;;;;;5133380;27;36383;-77
2021/11/18 06:02:33;;;;;;;35.13;10.10;;;8.80;99.90;;;;;;5133489;27;48866;-77
2021/11/18 06:05:00;;;;;;;37.10;9.00;;;8.90;99.90;;;;;;5131986;27;39568;-77
2021/11/18 06:07:26;;;;;;;39.50;10.00;;;8.90;99.90;;;;;;5133260;27;39088;-77
2021/11/18 06:09:53;;;;;;;39.97;10.73;;;9.00;99.90;;;;;;5139435;27;36167;-78
2021/11/18 06:12:19;;;;;;;39.30;11.33;;;9.00;99.90;;;;;;5131197;27;39334;-78
2021/11/18 06:14:46;;;;;;;46.60;9.90;;;9.10;99.90;;;;;;5126999;27;39830;-78
2021/11/18 06:17:14;;;;;;;50.77;12.00;;;9.10;99.90;;;;;;5123988;27;37333;-78
2021/11/18 06:19:40;;;;;;;33.10;9.67;;;9.00;99.90;;;;;;5136214;27;38010;-76
2021/11/18 06:22:06;;;;;;;34.13;8.27;;;9.00;99.90;;;;;;5122887;27;39777;-77
2021/11/18 06:24:32;;;;;;;34.20;8.13;;;9.00;99.90;;;;;;5132462;27;38719;-77
2021/11/18 06:26:58;;;;;;;37.17;8.27;;;9.00;99.90;;;;;;5113730;27;39588;-77
2021/11/18 06:29:25;;;;;;;46.03;10.43;;;9.00;99.90;;;;;;5136062;27;37842;-78
2021/11/18 06:31:53;;;;;;;38.40;9.43;;;9.00;99.90;;;;;;5154777;27;38915;-78
2021/11/18 06:34:19;;;;;;;30.93;8.30;;;8.90;99.90;;;;;;5133147;27;41378;-77
2021/11/18 06:36:46;;;;;;;39.33;10.63;;;8.90;99.90;;;;;;5161532;27;38725;-78
2021/11/18 06:39:14;;;;;;;36.20;10.90;;;8.80;99.90;;;;;;5157635;27;38068;-77
2021/11/18 06:41:41;;;;;;;34.13;10.10;;;8.80;99.90;;;;;;5136037;27;39469;-77
2021/11/18 06:44:08;;;;;;;36.20;9.17;;;8.80;99.90;;;;;;5160167;27;41749;-77
2021/11/18 06:46:34;;;;;;;43.23;9.60;;;8.80;99.90;;;;;;5133909;27;39315;-78
2021/11/18 06:49:01;;;;;;;46.10;10.63;;;8.80;99.90;;;;;;5136004;27;36256;-78
2021/11/18 06:51:28;;;;;;;44.53;10.20;;;8.90;99.90;;;;;;5155555;27;48700;-77
2021/11/18 06:53:57;;;;;;;36.67;10.37;;;8.90;99.90;;;;;;5138837;27;39431;-78
2021/11/18 06:56:25;;;;;;;28.80;8.70;;;8.80;99.90;;;;;;5134414;27;39893;-77
2021/11/18 06:58:52;;;;;;;40.53;9.63;;;8.90;99.90;;;;;;5160739;27;37216;-77
2021/11/18 07:01:19;;;;;;;40.63;10.33;;;8.80;99.90;;;;;;5157491;27;40093;-77
2021/11/18 07:03:46;;;;;;;35.50;8.83;;;8.80;99.90;;;;;;5154051;27;39802;-77
2021/11/18 07:06:15;;;;;;;37.77;10.27;;;8.70;99.90;;;;;;5138368;27;39325;-78
2021/11/18 07:08:43;;;;;;;37.43;9.63;;;8.70;99.90;;;;;;5130750;27;36334;-77
2021/11/18 07:11:11;;;;;;;49.47;10.70;;;8.70;99.90;;;;;;5147216;27;38943;-78
2021/11/18 07:13:39;;;;;;;43.13;10.83;;;8.80;99.90;;;;;;5139215;27;38786;-77
2021/11/18 07:16:08;;;;;;;43.23;11.00;;;8.90;99.90;;;;;;5122816;27;38610;-77
2021/11/18 07:18:35;;;;;;;34.13;10.27;;;8.80;99.90;;;;;;5123844;27;37923;-77
2021/11/18 07:21:02;;;;;;;30.93;9.50;;;8.90;99.90;;;;;;5132996;27;39500;-77
2021/11/18 07:23:29;;;;;;;44.03;12.53;;;8.90;99.90;;;;;;5139984;27;37832;-77
2021/11/18 07:25:58;;;;;;;34.30;11.10;;;8.80;99.90;;;;;;5140056;27;37502;-77
2021/11/18 07:28:27;;;;;;;28.37;9.40;;;8.90;99.90;;;;;;5140430;27;37338;-77
2021/11/18 07:30:54;;;;;;;32.03;10.03;;;9.00;99.90;;;;;;5142110;27;38123;-77
2021/11/18 07:33:23;;;;;;;40.27;11.53;;;9.00;99.90;;;;;;5142111;27;39061;-76
2021/11/18 07:35:53;;;;;;;44.87;11.17;;;9.00;99.90;;;;;;5141107;27;38214;-76
2021/11/18 07:38:23;;;;;;;31.93;9.87;;;9.00;99.90;;;;;;5145337;27;37316;-77
2021/11/18 07:40:50;;;;;;;41.07;11.37;;;9.10;99.90;;;;;;5142076;27;39777;-76
2021/11/18 07:43:24;;;;;;;32.90;9.80;;;9.00;99.90;;;;;;5129359;27;38342;-76
2021/11/18 07:45:52;;;;;;;32.47;11.67;;;9.00;99.90;;;;;;5142027;27;39615;-76
2021/11/18 07:48:18;;;;;;;37.30;11.30;;;8.90;99.90;;;;;;5153624;27;37181;-77
2021/11/18 07:50:46;;;;;;;41.73;12.37;;;9.00;99.90;;;;;;5117146;27;38833;-76
2021/11/18 07:53:14;;;;;;;36.20;13.00;;;9.00;99.90;;;;;;5150741;27;39955;-76
2021/11/18 07:55:41;;;;;;;38.90;10.30;;;9.10;99.90;;;;;;5155544;27;39354;-76
2021/11/18 07:58:07;;;;;;;46.63;10.30;;;9.10;99.90;;;;;;5136025;27;36612;-77
2021/11/18 08:00:34;;;;;;;28.73;9.50;;;9.20;99.90;;;;;;5153117;27;38654;-77
2021/11/18 08:03:09;;;;;;;38.90;12.03;;;9.20;99.90;;;;;;5133928;27;37613;-77
2021/11/18 08:05:36;;;;;;;34.50;9.60;;;9.30;99.90;;;;;;5156085;27;48608;-75
2021/11/18 08:08:03;;;;;;;37.47;11.23;;;9.30;99.90;;;;;;5139834;27;36801;-75
2021/11/18 08:10:29;;;;;;;46.30;12.70;;;9.30;99.90;;;;;;5130562;27;37531;-76
2021/11/18 08:12:56;;;;;;;40.40;10.50;;;9.30;99.90;;;;;;5128400;27;37899;-76
2021/11/18 08:15:22;;;;;;;32.00;9.83;;;9.30;99.90;;;;;;5114323;27;39099;-76
2021/11/18 08:17:51;;;;;;;43.10;11.27;;;9.30;99.90;;;;;;5135875;27;38475;-76
2021/11/18 08:20:18;;;;;;;39.40;10.43;;;9.30;99.90;;;;;;5133801;27;39053;-75
2021/11/18 08:22:44;;;;;;;38.50;9.40;;;9.30;99.90;;;;;;5138717;27;39942;-74
2021/11/18 08:25:13;;;;;;;42.37;10.20;;;9.40;99.90;;;;;;5136309;27;38633;-75
2021/11/18 08:27:40;;;;;;;40.33;10.10;;;9.40;99.90;;;;;;5126039;27;36476;-75
2021/11/18 08:30:10;;;;;;;36.13;10.43;;;9.50;99.90;;;;;;5126052;27;38927;-76
2021/11/18 08:32:39;;;;;;;39.53;10.37;;;9.50;99.90;;;;;;5154053;27;48920;-74
2021/11/18 08:35:07;;;;;;;35.03;10.20;;;9.50;99.90;;;;;;5138285;27;39793;-74
2021/11/18 08:37:33;;;;;;;33.17;9.40;;;9.60;99.90;;;;;;5136473;27;36694;-75
2021/11/18 08:39:59;;;;;;;41.37;10.37;;;9.60;99.90;;;;;;5135531;27;38988;-75
2021/11/18 08:42:27;;;;;;;39.23;9.03;;;9.60;99.90;;;;;;5138727;27;39193;-77
2021/11/18 08:44:54;;;;;;;42.27;10.10;;;9.70;99.90;;;;;;5135059;27;38304;-74
2021/11/18 08:47:22;;;;;;;39.60;8.97;;;9.80;99.90;;;;;;5136461;27;39055;-75
2021/11/18 08:49:49;;;;;;;33.97;8.97;;;9.90;99.90;;;;;;5142764;27;39041;-75
2021/11/18 08:52:19;;;;;;;34.47;8.97;;;9.90;99.90;;;;;;5131308;27;37462;-78
2021/11/18 08:54:49;;;;;;;39.97;9.10;;;10.00;99.90;;;;;;5133823;27;38124;-76
2021/11/18 08:57:15;;;;;;;43.47;9.87;;;10.00;99.90;;;;;;5133364;27;38395;-77
2021/11/18 08:59:42;;;;;;;28.23;8.10;;;10.10;99.90;;;;;;5136172;27;39583;-76
2021/11/18 09:02:16;;;;;;;30.77;9.33;;;10.10;99.90;;;;;;5135106;27;39427;-77
2021/11/18 09:04:42;;;;;;;35.73;8.80;;;10.10;99.90;;;;;;5133651;27;39182;-78
2021/11/18 09:07:08;;;;;;;38.97;9.23;;;10.10;99.90;;;;;;5133194;27;37291;-76
2021/11/18 09:09:34;;;;;;;36.80;9.67;;;10.20;99.90;;;;;;5129519;27;40375;-76
2021/11/18 09:12:02;;;;;;;42.90;9.47;;;10.20;99.90;;;;;;5138561;27;39722;-75
2021/11/18 09:14:30;;;;;;;37.73;9.73;;;10.20;99.90;;;;;;5138998;27;48613;-77
2021/11/18 09:16:56;;;;;;;34.40;9.03;;;10.20;99.90;;;;;;5141029;27;38017;-76
2021/11/18 09:19:26;;;;;;;36.33;8.83;;;10.30;99.90;;;;;;5132252;27;40234;-76
2021/11/18 09:21:54;;;;;;;29.73;7.80;;;10.30;99.90;;;;;;5135536;27;39306;-75
2021/11/18 09:24:28;;;;;;;33.97;8.90;;;10.30;99.90;;;;;;5132389;27;39766;-75
2021/11/18 09:27:00;;;;;;;26.73;9.37;;;10.30;99.90;;;;;;5136538;27;37410;-76
2021/11/18 09:29:28;;;;;;;46.60;11.03;;;10.40;99.90;;;;;;5144884;27;40303;-76
2021/11/18 09:31:59;;;;;;;30.63;9.87;;;10.40;99.90;;;;;;5129498;27;40118;-76
2021/11/18 09:34:27;;;;;;;37.10;9.87;;;10.40;99.90;;;;;;5146233;27;38247;-76
2021/11/18 09:36:55;;;;;;;35.40;10.03;;;10.40;99.90;;;;;;5126804;27;38335;-76
2021/11/18 09:39:21;;;;;;;27.67;8.73;;;10.50;99.90;;;;;;5128927;27;40085;-76
2021/11/18 09:42:02;;;;;;;43.87;10.13;;;10.50;99.90;;;;;;5142077;27;39360;-76
2021/11/18 09:44:31;;;;;;;38.87;8.90;;;10.50;99.90;;;;;;5168741;27;48794;-76
2021/11/18 09:47:31;;;;;;;27.53;9.03;;;10.60;99.90;;;;;;5166897;27;40272;-76
2021/11/18 09:50:18;;;;;;;27.90;8.53;;;10.60;99.90;;;;;;5145307;27;47564;-76
2021/11/18 09:53:02;;;;;;;33.60;9.30;;;10.60;99.90;;;;;;5071715;28;47318;-76
2021/11/18 09:55:54;;;;;;;34.03;8.70;;;10.70;99.90;;;;;;5086104;27;48778;-75
2021/11/18 09:58:31;;;;;;;39.37;8.10;;;10.80;99.90;;;;;;5113862;27;38659;-78
2021/11/18 10:01:11;;;;;;;39.43;9.10;;;10.80;99.90;;;;;;5141358;27;39648;-78
2021/11/18 10:04:18;;;;;;;34.73;8.93;;;10.90;99.90;;;;;;5165785;27;48808;-78
2021/11/18 10:06:46;;;;;;;31.60;7.70;;;11.00;99.90;;;;;;5160463;27;48341;-76
2021/11/18 10:09:37;;;;;;;36.90;9.40;;;11.10;99.90;;;;;;5161749;27;37205;-76
2021/11/18 10:12:14;;;;;;;31.07;8.67;;;11.10;99.90;;;;;;5166117;27;38926;-77
2021/11/18 10:14:46;;;;;;;30.83;7.50;;;11.20;99.90;;;;;;5136737;27;37661;-76
2021/11/18 10:17:16;;;;;;;34.17;7.55;;;11.30;99.90;;;;;;5165088;27;39412;-77
2021/11/18 10:19:50;;;;;;;35.77;8.27;;;11.30;99.90;;;;;;5147272;27;37461;-76
2021/11/18 10:22:18;;;;;;;35.93;8.63;;;11.30;99.90;;;;;;5139918;27;38153;-76
2021/11/18 10:24:47;;;;;;;30.83;8.63;;;11.30;99.90;;;;;;5133521;27;38564;-76
2021/11/18 10:27:19;;;;;;;32.17;7.37;;;11.40;99.90;;;;;;5167976;27;38088;-77
2021/11/18 10:30:07;;;;;;;30.35;8.15;;;11.40;99.90;;;;;;5161082;27;37376;-77
2021/11/18 10:32:57;;;;;;;31.00;7.07;;;11.50;99.90;;;;;;5142422;27;48216;-77
2021/11/18 10:35:32;;;;;;;39.53;8.00;;;11.50;99.90;;;;;;5135590;27;38898;-76
2021/11/18 10:38:13;;;;;;;33.10;7.37;;;11.50;99.90;;;;;;5141824;27;39760;-76
2021/11/18 10:41:14;;;;;;;31.80;7.37;;;11.50;99.90;;;;;;5163600;27;48888;-77
2021/11/18 10:43:42;;;;;;;35.83;8.13;;;11.60;99.90;;;;;;5093963;27;47387;-77
2021/11/18 10:46:14;;;;;;;33.50;7.30;;;11.60;99.90;;;;;;5161021;27;38563;-77
2021/11/18 10:49:14;;;;;;;29.83;8.10;;;11.60;99.90;;;;;;5148524;27;39159;-75
2021/11/18 10:51:54;;;;;;;33.07;7.80;;;11.70;99.90;;;;;;5109115;27;47297;-77
2021/11/18 10:54:38;;;;;;;31.23;7.23;;;11.70;99.90;;;;;;5143907;27;39724;-76
2021/11/18 10:57:05;;;;;;;27.17;6.93;;;11.70;99.90;;;;;;5139002;27;39588;-77
2021/11/18 10:59:36;;;;;;;31.13;7.60;;;11.70;99.90;;;;;;5163177;27;38469;-77
2021/11/18 11:02:33;;;;;;;31.97;8.00;;;11.70;99.90;;;;;;5161223;27;37302;-79
2021/11/18 11:05:37;;;;;;;32.03;7.33;;;11.70;99.90;;;;;;5136849;27;40576;-78
2021/11/18 11:08:22;;;;;;;30.30;8.23;;;11.80;99.90;;;;;;5109126;27;47149;-77
2021/11/18 11:10:56;;;;;;;41.07;7.07;;;11.90;99.90;;;;;;5141268;27;39204;-78
2021/11/18 11:13:51;;;;;;;30.00;7.70;;;11.90;99.90;;;;;;5162835;27;37056;-77
2021/11/18 11:16:44;;;;;;;24.40;5.60;;;12.00;99.90;;;;;;5148590;27;40105;-78
2021/11/18 11:19:26;;;;;;;31.15;7.50;;;12.00;99.90;;;;;;5161881;27;39864;-78
2021/11/18 11:22:10;;;;;;;24.70;7.22;;;12.10;99.90;;;;;;5165400;27;38309;-78
2021/11/18 11:25:18;;;;;;;32.03;7.60;;;12.10;99.90;;;;;;5162161;27;48774;-78
2021/11/18 11:28:00;;;;;;;25.93;6.37;;;12.30;99.90;;;;;;5165937;27;48088;-78
2021/11/18 11:30:47;;;;;;;25.30;6.10;;;12.30;99.90;;;;;;5163322;27;47405;-78
2021/11/18 11:33:28;;;;;;;34.03;6.57;;;12.40;99.90;;;;;;5149232;27;40247;-78
2021/11/18 11:36:04;;;;;;;33.77;7.17;;;12.50;99.90;;;;;;5143131;27;36619;-77
2021/11/18 11:38:41;;;;;;;32.50;7.20;;;12.60;99.90;;;;;;5150959;27;49087;-77
2021/11/18 11:41:27;;;;;;;28.25;6.53;;;12.70;99.90;;;;;;5159778;27;39041;-75
2021/11/18 11:44:14;;;;;;;39.13;8.88;;;12.80;99.90;;;;;;5168503;27;38492;-76
2021/11/18 11:46:48;;;;;;;35.75;6.10;;;12.90;99.90;;;;;;5146839;27;48257;-76
2021/11/18 11:49:23;;;;;;;35.53;6.47;;;13.00;99.90;;;;;;5159811;27;39734;-78
2021/11/18 11:52:10;;;;;;;27.67;5.30;;;13.00;99.90;;;;;;5142773;27;39703;-78
2021/11/18 11:54:55;;;;;;;35.28;6.28;;;13.00;99.90;;;;;;5127125;27;47324;-78
2021/11/18 11:57:42;;;;;;;30.60;6.20;;;13.00;99.90;;;;;;5140910;27;37305;-76
2021/11/18 12:00:17;;;;;;;30.33;6.20;;;13.10;99.90;;;;;;5139756;27;40868;-77
2021/11/18 12:03:05;;;;;;;20.90;5.30;;;13.30;99.90;;;;;;5139609;27;39909;-78
2021/11/18 12:05:55;;;;;;;34.05;6.22;;;13.40;99.90;;;;;;5139706;27;46961;-75
2021/11/18 12:09:08;;;;;;;32.35;5.30;;;13.50;99.90;;;;;;5142586;27;36722;-76
2021/11/18 12:11:54;;;;;;;25.27;4.70;;;13.60;99.90;;;;;;5112667;27;46260;-77
2021/11/18 12:14:45;;;;;;;24.50;5.10;;;13.70;99.90;;;;;;5137376;27;39030;-77
2021/11/18 12:17:21;;;;;;;22.35;5.75;;;13.70;99.90;;;;;;5134650;27;40218;-78
2021/11/18 12:20:11;;;;;;;26.67;5.47;;;13.70;99.90;;;;;;5138199;27;37449;-77
2021/11/18 12:22:37;;;;;;;31.83;4.95;;;13.60;99.90;;;;;;5126051;27;47217;-77
2021/11/18 12:25:17;;;;;;;28.42;5.50;;;13.70;99.90;;;;;;5122788;27;40459;-77
2021/11/18 12:27:58;;;;;;;29.20;5.90;;;13.60;99.90;;;;;;5105907;27;47333;-77
2021/11/18 12:30:51;;;;;;;27.13;4.55;;;13.60;99.90;;;;;;5134940;27;37415;-77
2021/11/18 12:33:17;;;;;;;;;;;13.70;99.90;;;;;;5128451;27;39739;-77
2021/11/18 12:35:49;;;;;;;28.92;5.20;;;13.70;99.90;;;;;;5140327;27;40638;-78
2021/11/18 12:38:55;;;;;;;27.20;5.35;;;13.70;99.90;;;;;;5136096;27;39699;-79
2021/11/18 12:41:47;;;;;;;43.20;6.40;;;13.80;99.90;;;;;;5133457;27;38114;-76
2021/11/18 12:44:36;;;;;;;20.35;4.53;;;14.00;99.90;;;;;;5130597;27;39085;-75
2021/11/18 12:47:08;;;;;;;30.02;5.03;;;13.90;99.90;;;;;;5140044;27;39455;-76
2021/11/18 12:49:55;;;;;;;29.73;5.75;;;14.00;99.90;;;;;;5141561;27;39350;-76
2021/11/18 12:52:32;;;;;;;24.88;4.55;;;14.00;99.90;;;;;;5132373;27;37526;-76
2021/11/18 12:55:14;;;;;;;25.90;5.18;;;14.00;99.90;;;;;;5141644;27;39410;-76
2021/11/18 12:57:52;;;;;;;26.88;5.57;;;14.00;99.90;;;;;;5132493;27;49020;-72
2021/11/18 13:00:21;;;;;;;24.95;4.43;;;14.10;99.90;;;;;;5136879;27;37983;-75
2021/11/18 13:02:53;;;;;;;24.65;5.38;;;14.10;99.90;;;;;;5142142;27;37427;-72
2021/11/18 13:05:19;;;;;;;27.57;4.57;;;14.10;99.90;;;;;;5130787;27;39650;-72